createdAt,value
2018-06-17T00:00:46.513Z,98040.78
2018-06-17T00:03:15.219Z,98036.56
2018-06-17T00:05:44.071Z,98037.72
2018-06-17T00:08:12.905Z,98032.23
2018-06-17T00:10:41.677Z,98033.84
2018-06-17T00:13:11.024Z,98034.75
2018-06-17T00:15:40.598Z,98038.61
2018-06-17T00:18:09.806Z,98031.77
2018-06-17T00:20:38.383Z,98039.41
2018-06-17T00:23:07.018Z,98035.20
2018-06-17T00:25:36.391Z,98035.41
2018-06-17T00:28:05.063Z,98040.42
2018-06-17T00:30:33.837Z,98045.10
2018-06-17T00:33:03.140Z,98046.12
2018-06-17T00:35:32.403Z,98047.28
2018-06-17T00:38:01.109Z,98050.68
2018-06-17T00:40:29.802Z,98051.27
2018-06-17T00:42:58.373Z,98057.08
2018-06-17T00:45:27.178Z,98059.56
2018-06-17T00:47:56.379Z,98057.53
2018-06-17T00:50:24.952Z,98053.66
2018-06-17T00:52:53.814Z,98065.73
2018-06-17T00:55:23.073Z,98060.83
2018-06-17T00:57:52.703Z,98070.50
2018-06-17T01:00:22.933Z,98070.05
2018-06-17T01:02:51.772Z,98078.00
2018-06-17T01:05:21.127Z,98080.52
2018-06-17T01:07:50.487Z,98078.70
2018-06-17T01:10:20.043Z,98083.23
2018-06-17T01:12:49.502Z,98070.48
2018-06-17T01:15:18.519Z,98076.64
2018-06-17T01:17:47.830Z,98073.56
2018-06-17T01:20:16.403Z,98073.70
2018-06-17T01:22:44.928Z,98072.55
2018-06-17T01:25:14.153Z,98074.02
2018-06-17T01:27:42.852Z,98075.94
2018-06-17T01:30:11.555Z,98070.62
2018-06-17T01:32:40.489Z,98072.44
2018-06-17T01:35:09.279Z,98075.73
2018-06-17T01:37:37.974Z,98083.72
2018-06-17T01:40:06.546Z,98085.19
2018-06-17T01:42:35.317Z,98084.59
2018-06-17T01:45:04.022Z,98080.28
2018-06-17T01:47:32.594Z,98075.03
2018-06-17T01:50:01.300Z,98079.47
2018-06-17T01:52:30.329Z,98087.41
2018-06-17T01:54:58.937Z,98096.16
2018-06-17T01:57:27.817Z,98092.80
2018-06-17T01:59:57.617Z,98088.60
2018-06-17T02:02:26.353Z,98094.34
2018-06-17T02:05:00.122Z,98097.06
2018-06-17T02:07:33.950Z,98096.80
2018-06-17T02:10:08.110Z,98088.34
2018-06-17T02:12:36.748Z,98086.39
2018-06-17T02:15:05.730Z,98079.07
2018-06-17T02:17:34.592Z,98075.78
2018-06-17T02:20:03.207Z,98079.66
2018-06-17T02:22:32.063Z,98082.60
2018-06-17T02:25:00.873Z,98078.05
2018-06-17T02:27:29.591Z,98080.52
2018-06-17T02:29:58.379Z,98077.67
2018-06-17T02:32:27.284Z,98076.66
2018-06-17T02:34:55.934Z,98085.95
2018-06-17T02:37:24.764Z,98085.95
2018-06-17T02:39:55.005Z,98077.21
2018-06-17T02:42:24.481Z,98080.06
2018-06-17T02:44:58.625Z,98081.88
2018-06-17T02:47:32.528Z,98084.49
2018-06-17T02:50:06.604Z,98076.39
2018-06-17T02:52:40.446Z,98078.63
2018-06-17T02:55:09.113Z,98079.75
2018-06-17T02:57:37.805Z,98083.58
2018-06-17T03:00:06.774Z,98094.70
2018-06-17T03:02:36.020Z,98102.42
2018-06-17T03:05:05.084Z,98100.01
2018-06-17T03:07:34.435Z,98100.79
2018-06-17T03:10:03.200Z,98105.69
2018-06-17T03:12:31.989Z,98103.79
2018-06-17T03:15:01.028Z,98100.84
2018-06-17T03:17:30.040Z,98103.81
2018-06-17T03:19:58.608Z,98099.38
2018-06-17T03:22:27.343Z,98099.50
2018-06-17T03:25:01.759Z,98104.09
2018-06-17T03:27:35.853Z,98115.00
2018-06-17T03:31:10.174Z,98116.00
2018-06-17T03:33:44.520Z,98111.91
2018-06-17T03:36:13.137Z,98119.77
2018-06-17T03:38:42.965Z,98123.42
2018-06-17T03:41:12.484Z,98124.79
2018-06-17T03:43:41.236Z,98132.20
2018-06-17T03:46:09.776Z,98133.75
2018-06-17T03:48:39.455Z,98129.20
2018-06-17T03:51:08.343Z,98135.80
2018-06-17T03:53:37.059Z,98137.31
2018-06-17T03:56:05.706Z,98144.41
2018-06-17T03:58:34.209Z,98140.78
2018-06-17T04:01:03.160Z,98132.59
2018-06-17T04:03:31.758Z,98139.90
2018-06-17T04:06:00.490Z,98140.82
2018-06-17T04:08:29.659Z,98138.55
2018-06-17T04:10:59.200Z,98139.24
2018-06-17T04:13:29.265Z,98143.36
2018-06-17T04:15:58.030Z,98145.64
2018-06-17T04:18:27.500Z,98152.81
2018-06-17T04:20:56.503Z,98146.45
2018-06-17T04:23:25.739Z,98147.72
2018-06-17T04:25:54.340Z,98152.95
2018-06-17T04:28:23.720Z,98154.00
2018-06-17T04:30:52.868Z,98153.66
2018-06-17T04:33:21.450Z,98159.33
2018-06-17T04:35:50.241Z,98163.57
2018-06-17T04:38:19.104Z,98166.59
2018-06-17T04:40:47.684Z,98166.95
2018-06-17T04:43:17.069Z,98176.75
2018-06-17T04:45:46.229Z,98169.47
2018-06-17T04:48:15.065Z,98175.29
2018-06-17T04:50:43.721Z,98179.55
2018-06-17T04:53:12.873Z,98179.34
2018-06-17T04:55:42.701Z,98174.59
2018-06-17T04:58:11.360Z,98179.45
2018-06-17T05:00:40.060Z,98182.79
2018-06-17T05:03:08.673Z,98187.14
2018-06-17T05:05:37.345Z,98194.19
2018-06-17T05:08:06.294Z,98194.89
2018-06-17T05:10:35.880Z,98200.60
2018-06-17T05:13:04.674Z,98200.60
2018-06-17T05:15:34.475Z,98198.56
2018-06-17T05:18:03.756Z,98204.25
2018-06-17T05:20:32.414Z,98204.94
2018-06-17T05:23:01.541Z,98201.62
2018-06-17T05:25:30.244Z,98207.19
2018-06-17T05:27:59.015Z,98205.61
2018-06-17T05:30:27.857Z,98209.71
2018-06-17T05:32:56.549Z,98213.57
2018-06-17T05:35:25.214Z,98210.41
2018-06-17T05:37:53.795Z,98212.45
2018-06-17T05:40:22.521Z,98212.91
2018-06-17T05:42:52.019Z,98229.31
2018-06-17T05:45:21.605Z,98235.48
2018-06-17T05:47:50.367Z,98236.39
2018-06-17T05:50:19.057Z,98233.87
2018-06-17T05:52:47.684Z,98236.14
2018-06-17T05:55:16.530Z,98236.39
2018-06-17T05:57:45.216Z,98236.14
2018-06-17T06:00:13.931Z,98245.96
2018-06-17T06:02:42.916Z,98250.31
2018-06-17T06:05:12.537Z,98239.96
2018-06-17T06:07:41.240Z,98243.96
2018-06-17T06:10:09.959Z,98249.08
2018-06-17T06:12:40.283Z,98240.65
2018-06-17T06:15:09.039Z,98243.06
2018-06-17T06:17:38.420Z,98247.63
2018-06-17T06:20:08.884Z,98251.93
2018-06-17T06:22:37.675Z,98245.56
2018-06-17T06:25:07.151Z,98249.77
2018-06-17T06:27:36.675Z,98255.70
2018-06-17T06:30:05.876Z,98261.97
2018-06-17T06:32:35.170Z,98258.31
2018-06-17T06:35:04.080Z,98264.00
2018-06-17T06:37:33.699Z,98262.53
2018-06-17T06:40:02.461Z,98275.09
2018-06-17T06:42:31.372Z,98272.23
2018-06-17T06:45:00.980Z,98271.56
2018-06-17T06:47:30.357Z,98269.50
2018-06-17T06:49:59.031Z,98270.52
2018-06-17T06:52:27.992Z,98269.27
2018-06-17T06:54:57.570Z,98268.94
2018-06-17T06:57:27.948Z,98267.57
2018-06-17T06:59:56.697Z,98276.80
2018-06-17T07:02:36.644Z,98281.92
2018-06-17T07:05:16.342Z,98285.47
2018-06-17T07:07:56.212Z,98292.43
2018-06-17T07:10:27.170Z,98289.32
2018-06-17T07:12:55.830Z,98290.69
2018-06-17T07:15:37.145Z,98295.03
2018-06-17T07:18:17.126Z,98298.42
2018-06-17T07:20:46.053Z,98287.20
2018-06-17T07:23:14.926Z,98289.49
2018-06-17T07:26:54.292Z,98297.75
2018-06-17T07:29:38.336Z,98296.48
2018-06-17T07:32:07.101Z,98296.19
2018-06-17T07:34:35.849Z,98295.20
2018-06-17T07:37:04.832Z,98289.39
2018-06-17T07:39:46.207Z,98292.42
2018-06-17T07:42:15.128Z,98293.25
2018-06-17T07:44:43.811Z,98291.38
2018-06-17T07:47:12.659Z,98296.42
2018-06-17T07:49:52.787Z,98284.48
2018-06-17T07:52:33.676Z,98292.26
2018-06-17T07:55:02.317Z,98295.30
2018-06-17T07:57:32.320Z,98295.03
2018-06-17T08:00:01.012Z,98300.72
2018-06-17T08:02:30.653Z,98300.58
2018-06-17T08:04:59.497Z,98302.31
2018-06-17T08:07:28.407Z,98302.19
2018-06-17T08:09:57.097Z,98298.64
2018-06-17T08:12:25.948Z,98295.80
2018-06-17T08:14:54.640Z,98295.56
2018-06-17T08:17:23.622Z,98299.02
2018-06-17T08:19:52.202Z,98301.20
2018-06-17T08:22:20.945Z,98306.47
2018-06-17T08:24:49.526Z,98301.87
2018-06-17T08:27:18.522Z,98295.64
2018-06-17T08:29:47.911Z,98299.43
2018-06-17T08:32:16.758Z,98293.66
2018-06-17T08:34:45.493Z,98299.29
2018-06-17T08:37:14.982Z,98297.35
2018-06-17T08:39:43.716Z,98299.23
2018-06-17T08:42:13.656Z,98304.20
2018-06-17T08:44:42.377Z,98298.22
2018-06-17T08:47:11.347Z,98299.98
2018-06-17T08:49:40.331Z,98294.77
2018-06-17T08:52:08.887Z,98293.36
2018-06-17T08:54:37.752Z,98297.45
2018-06-17T08:57:06.494Z,98287.41
2018-06-17T08:59:35.883Z,98289.88
2018-06-17T09:02:04.903Z,98287.25
2018-06-17T09:04:34.093Z,98286.77
2018-06-17T09:07:02.978Z,98286.17
2018-06-17T09:09:31.669Z,98285.73
2018-06-17T09:12:00.265Z,98290.46
2018-06-17T09:14:28.968Z,98283.27
2018-06-17T09:16:57.797Z,98285.37
2018-06-17T09:19:26.517Z,98278.61
2018-06-17T09:21:55.613Z,98287.94
2018-06-17T09:24:24.438Z,98282.30
2018-06-17T09:26:53.287Z,98285.92
2018-06-17T09:29:23.041Z,98285.20
2018-06-17T09:31:51.920Z,98278.44
2018-06-17T09:34:20.776Z,98272.78
2018-06-17T09:36:49.460Z,98276.87
2018-06-17T09:39:18.541Z,98275.98
2018-06-17T09:41:47.410Z,98274.40
2018-06-17T09:44:16.267Z,98281.38
2018-06-17T09:46:45.043Z,98278.14
2018-06-17T09:49:14.138Z,98284.34
2018-06-17T09:51:42.967Z,98280.19
2018-06-17T09:54:11.833Z,98278.56
2018-06-17T09:56:41.018Z,98282.14
2018-06-17T09:59:10.024Z,98284.09
2018-06-17T10:01:38.764Z,98280.73
2018-06-17T10:04:07.393Z,98277.77
2018-06-17T10:06:36.275Z,98284.09
2018-06-17T10:09:09.097Z,98277.84
2018-06-17T10:11:37.776Z,98283.33
2018-06-17T10:14:06.733Z,98277.75
2018-06-17T10:16:36.058Z,98282.49
2018-06-17T10:19:04.962Z,98274.98
2018-06-17T10:21:33.987Z,98284.95
2018-06-17T10:24:03.399Z,98282.38
2018-06-17T10:26:32.094Z,98287.53
2018-06-17T10:29:00.976Z,98284.92
2018-06-17T10:31:30.079Z,98274.08
2018-06-17T10:33:58.857Z,98268.63
2018-06-17T10:36:28.292Z,98260.94
2018-06-17T10:38:57.703Z,98269.55
2018-06-17T10:41:26.418Z,98269.78
2018-06-17T10:43:56.119Z,98263.19
2018-06-17T10:46:25.098Z,98255.83
2018-06-17T10:48:54.253Z,98251.77
2018-06-17T10:51:23.257Z,98251.98
2018-06-17T10:53:51.948Z,98250.44
2018-06-17T10:56:20.823Z,98243.58
2018-06-17T10:58:50.172Z,98236.38
2018-06-17T11:01:19.164Z,98243.75
2018-06-17T11:03:47.928Z,98244.33
2018-06-17T11:06:17.013Z,98245.73
2018-06-17T11:08:45.694Z,98246.80
2018-06-17T11:11:14.353Z,98237.14
2018-06-17T11:13:43.125Z,98231.88
2018-06-17T11:16:12.015Z,98230.34
2018-06-17T11:18:40.749Z,98230.55
2018-06-17T11:21:09.473Z,98231.86
2018-06-17T11:23:38.114Z,98230.09
2018-06-17T11:26:06.925Z,98231.09
2018-06-17T11:28:35.676Z,98231.11
2018-06-17T11:31:04.682Z,98227.88
2018-06-17T11:33:33.790Z,98235.30
2018-06-17T11:36:02.790Z,98228.70
2018-06-17T11:38:31.756Z,98225.89
2018-06-17T11:41:00.534Z,98220.36
2018-06-17T11:43:29.951Z,98215.70
2018-06-17T11:45:58.734Z,98215.34
2018-06-17T11:48:27.627Z,98220.00
2018-06-17T11:50:56.496Z,98213.37
2018-06-17T11:53:25.489Z,98217.84
2018-06-17T11:55:54.202Z,98218.73
2018-06-17T11:58:23.071Z,98225.12
2018-06-17T12:00:52.129Z,98225.79
2018-06-17T12:03:20.903Z,98219.92
2018-06-17T12:05:49.812Z,98219.07
2018-06-17T12:08:18.952Z,98223.88
2018-06-17T12:10:48.485Z,98224.66
2018-06-17T12:13:17.382Z,98224.77
2018-06-17T12:15:47.728Z,98225.67
2018-06-17T12:18:16.709Z,98229.22
2018-06-17T12:20:46.050Z,98224.85
2018-06-17T12:23:14.919Z,98217.63
2018-06-17T12:25:43.901Z,98218.66
2018-06-17T12:28:12.767Z,98218.25
2018-06-17T12:30:41.994Z,98217.45
2018-06-17T12:33:10.592Z,98219.89
2018-06-17T12:35:39.179Z,98225.08
2018-06-17T12:38:08.728Z,98224.42
2018-06-17T12:40:37.369Z,98225.81
2018-06-17T12:43:06.215Z,98223.21
2018-06-17T12:45:35.279Z,98218.80
2018-06-17T12:48:04.618Z,98220.73
2018-06-17T12:50:33.801Z,98224.50
2018-06-17T12:53:02.523Z,98229.06
2018-06-17T12:55:31.718Z,98220.09
2018-06-17T12:58:00.399Z,98216.64
2018-06-17T13:00:29.234Z,98214.16
2018-06-17T13:02:57.858Z,98215.08
2018-06-17T13:05:27.350Z,98214.16
2018-06-17T13:07:56.231Z,98210.16
2018-06-17T13:10:26.554Z,98211.50
2018-06-17T13:12:55.715Z,98200.68
2018-06-17T13:15:24.735Z,98202.68
2018-06-17T13:17:54.423Z,98198.80
2018-06-17T13:20:23.634Z,98201.95
2018-06-17T13:22:52.458Z,98199.92
2018-06-17T13:25:21.274Z,98197.29
2018-06-17T13:27:50.311Z,98202.67
2018-06-17T13:30:19.287Z,98201.93
2018-06-17T13:32:48.170Z,98198.59
2018-06-17T13:35:16.773Z,98201.81
2018-06-17T13:37:46.084Z,98197.13
2018-06-17T13:40:15.279Z,98198.68
2018-06-17T13:42:44.280Z,98198.80
2018-06-17T13:45:13.068Z,98205.55
2018-06-17T13:47:41.729Z,98210.72
2018-06-17T13:50:11.228Z,98214.89
2018-06-17T13:52:40.189Z,98209.33
2018-06-17T13:55:08.975Z,98208.22
2018-06-17T13:57:37.857Z,98213.58
2018-06-17T14:00:07.682Z,98213.56
2018-06-17T14:02:36.848Z,98213.74
2018-06-17T14:05:06.668Z,98213.36
2018-06-17T14:07:35.505Z,98215.92
2018-06-17T14:10:05.752Z,98205.03
2018-06-17T14:12:35.035Z,98208.03
2018-06-17T14:15:04.344Z,98199.47
2018-06-17T14:17:33.594Z,98201.36
2018-06-17T14:20:02.505Z,98199.20
2018-06-17T14:22:31.176Z,98203.50
2018-06-17T14:25:00.204Z,98207.08
2018-06-17T14:27:28.868Z,98199.52
2018-06-17T14:29:57.570Z,98196.80
2018-06-17T14:32:26.803Z,98199.64
2018-06-17T14:34:55.780Z,98192.14
2018-06-17T14:37:24.520Z,98198.09
2018-06-17T14:39:53.160Z,98193.88
2018-06-17T14:42:27.124Z,98197.26
2018-06-17T14:45:00.966Z,98199.09
2018-06-17T14:47:34.944Z,98200.88
2018-06-17T14:50:09.005Z,98204.38
2018-06-17T14:52:43.289Z,98206.12
2018-06-17T14:55:12.059Z,98204.91
2018-06-17T14:57:40.870Z,98205.64
2018-06-17T15:00:09.833Z,98216.97
2018-06-17T15:02:38.444Z,98221.52
2018-06-17T15:05:07.179Z,98226.20
2018-06-17T15:07:36.486Z,98224.75
2018-06-17T15:10:05.240Z,98221.94
2018-06-17T15:12:33.978Z,98223.67
2018-06-17T15:15:02.606Z,98227.77
2018-06-17T15:17:31.219Z,98224.19
2018-06-17T15:20:00.324Z,98225.95
2018-06-17T15:22:28.928Z,98234.49
2018-06-17T15:24:57.663Z,98229.37
2018-06-17T15:27:26.343Z,98230.19
2018-06-17T15:29:55.584Z,98229.02
2018-06-17T15:32:29.373Z,98232.32
2018-06-17T15:35:03.390Z,98237.52
2018-06-17T15:37:38.033Z,98237.33
2018-06-17T15:40:06.685Z,98233.20
2018-06-17T15:42:35.350Z,98234.16
2018-06-17T15:45:04.180Z,98231.56
2018-06-17T15:47:33.645Z,98232.55
2018-06-17T15:50:02.603Z,98230.19
2018-06-17T15:52:31.184Z,98236.28
2018-06-17T15:55:00.460Z,98237.77
2018-06-17T15:57:29.359Z,98243.86
2018-06-17T15:59:58.064Z,98239.87
2018-06-17T16:02:27.120Z,98245.64
2018-06-17T16:04:56.184Z,98247.27
2018-06-17T16:07:24.779Z,98241.91
2018-06-17T16:09:53.734Z,98243.70
2018-06-17T16:12:27.865Z,98245.25
2018-06-17T16:15:01.749Z,98240.55
2018-06-17T16:18:34.650Z,98242.33
2018-06-17T16:21:06.229Z,98240.94
2018-06-17T16:23:35.333Z,98244.65
2018-06-17T16:26:04.435Z,98236.28
2018-06-17T16:28:33.406Z,98242.70
2018-06-17T16:31:02.219Z,98235.98
2018-06-17T16:33:30.853Z,98236.44
2018-06-17T16:35:59.654Z,98240.70
2018-06-17T16:38:28.219Z,98244.67
2018-06-17T16:40:56.903Z,98243.60
2018-06-17T16:43:25.577Z,98239.53
2018-06-17T16:45:54.331Z,98249.47
2018-06-17T16:48:22.940Z,98248.78
2018-06-17T16:50:57.065Z,98244.12
2018-06-17T16:53:32.864Z,98240.45
2018-06-17T16:56:07.679Z,98245.47
2018-06-17T16:58:41.670Z,98246.13
2018-06-17T17:01:10.890Z,98243.34
2018-06-17T17:03:40.266Z,98244.01
2018-06-17T17:06:09.965Z,98252.64
2018-06-17T17:08:38.646Z,98259.39
2018-06-17T17:11:07.424Z,98267.44
2018-06-17T17:13:36.064Z,98266.98
2018-06-17T17:16:05.260Z,98271.13
2018-06-17T17:18:34.142Z,98275.05
2018-06-17T17:21:02.913Z,98277.05
2018-06-17T17:23:31.720Z,98280.05
2018-06-17T17:26:00.409Z,98278.67
2018-06-17T17:28:29.371Z,98280.48
2018-06-17T17:30:58.690Z,98278.73
2018-06-17T17:33:32.690Z,98287.84
2018-06-17T17:36:06.915Z,98287.39
2018-06-17T17:38:41.143Z,98294.70
2018-06-17T17:41:10.121Z,98296.56
2018-06-17T17:43:38.674Z,98295.41
2018-06-17T17:46:12.648Z,98293.30
2018-06-17T17:48:41.505Z,98293.77
2018-06-17T17:51:10.326Z,98290.78
2018-06-17T17:53:39.213Z,98300.44
2018-06-17T17:56:08.006Z,98301.52
2018-06-17T17:58:36.884Z,98306.69
2018-06-17T18:01:05.989Z,98307.43
2018-06-17T18:03:34.933Z,98306.35
2018-06-17T18:06:03.660Z,98311.61
2018-06-17T18:08:32.345Z,98310.35
2018-06-17T18:11:01.062Z,98308.44
2018-06-17T18:13:29.822Z,98309.03
2018-06-17T18:15:58.542Z,98305.02
2018-06-17T18:18:27.540Z,98307.81
2018-06-17T18:20:56.287Z,98302.36
2018-06-17T18:23:25.175Z,98306.67
2018-06-17T18:25:59.166Z,98306.63
2018-06-17T18:28:33.126Z,98311.75
2018-06-17T18:31:03.635Z,98314.62
2018-06-17T18:33:37.624Z,98322.38
2018-06-17T18:36:12.460Z,98328.47
2018-06-17T18:38:42.452Z,98323.56
2018-06-17T18:41:13.031Z,98326.03
2018-06-17T18:43:42.135Z,98334.82
2018-06-17T18:46:12.341Z,98334.90
2018-06-17T18:48:41.770Z,98342.02
2018-06-17T18:51:10.486Z,98340.30
2018-06-17T18:53:39.786Z,98344.80
2018-06-17T18:56:09.319Z,98354.92
2018-06-17T18:58:38.301Z,98352.11
2018-06-17T19:01:08.420Z,98348.70
2018-06-17T19:03:37.950Z,98357.33
2018-06-17T19:06:07.010Z,98359.36
2018-06-17T19:08:40.822Z,98364.14
2018-06-17T19:11:14.961Z,98371.53
2018-06-17T19:13:49.636Z,98377.68
2018-06-17T19:17:21.525Z,98380.64
2018-06-17T19:19:50.579Z,98391.32
2018-06-17T19:22:19.782Z,98391.39
2018-06-17T19:24:48.950Z,98395.92
2018-06-17T19:27:18.106Z,98398.16
2018-06-17T19:29:47.198Z,98399.41
2018-06-17T19:32:16.026Z,98405.88
2018-06-17T19:34:45.685Z,98405.10
2018-06-17T19:37:14.377Z,98409.13
2018-06-17T19:39:43.255Z,98410.06
2018-06-17T19:42:11.971Z,98419.75
2018-06-17T19:44:40.788Z,98417.64
2018-06-17T19:47:10.109Z,98425.51
2018-06-17T19:49:44.265Z,98428.75
2018-06-17T19:52:18.445Z,98432.20
2018-06-17T19:54:52.585Z,98433.42
2018-06-17T19:57:26.577Z,98437.75
2018-06-17T20:00:00.410Z,98441.92
2018-06-17T20:02:29.765Z,98441.13
2018-06-17T20:04:58.856Z,98448.48
2018-06-17T20:07:28.026Z,98453.66
2018-06-17T20:09:57.226Z,98454.36
2018-06-17T20:12:26.134Z,98450.52
2018-06-17T20:14:55.163Z,98456.23
2018-06-17T20:17:24.245Z,98446.62
2018-06-17T20:19:53.211Z,98452.03
2018-06-17T20:22:22.378Z,98445.41
2018-06-17T20:24:51.196Z,98454.39
2018-06-17T20:27:19.843Z,98456.61
2018-06-17T20:29:48.898Z,98462.10
2018-06-17T20:32:22.997Z,98465.33
2018-06-17T20:34:57.257Z,98463.55
2018-06-17T20:37:31.175Z,98461.97
2018-06-17T20:40:06.297Z,98470.68
2018-06-17T20:42:40.516Z,98472.17
2018-06-17T20:45:09.985Z,98473.55
2018-06-17T20:47:38.910Z,98475.72
2018-06-17T20:50:08.167Z,98481.45
2018-06-17T20:52:37.345Z,98482.02
2018-06-17T20:55:06.458Z,98476.52
2018-06-17T20:57:35.130Z,98478.73
2018-06-17T21:00:11.886Z,98476.01
2018-06-17T21:02:41.077Z,98478.19
2018-06-17T21:05:10.196Z,98477.08
2018-06-17T21:07:39.601Z,98477.27
2018-06-17T21:10:08.620Z,98472.92
2018-06-17T21:12:37.396Z,98475.56
2018-06-17T21:15:11.271Z,98483.70
2018-06-17T21:17:40.202Z,98481.54
2018-06-17T21:20:14.182Z,98477.41
2018-06-17T21:22:48.142Z,98480.51
2018-06-17T21:25:22.137Z,98480.41
2018-06-17T21:27:52.070Z,98482.34
2018-06-17T21:30:21.342Z,98477.20
2018-06-17T21:32:50.206Z,98474.92
2018-06-17T21:35:19.130Z,98474.47
2018-06-17T21:37:47.873Z,98479.26
2018-06-17T21:40:16.795Z,98485.66
2018-06-17T21:42:45.400Z,98490.48
2018-06-17T21:45:14.517Z,98493.55
2018-06-17T21:47:44.184Z,98495.02
2018-06-17T21:50:13.306Z,98498.22
2018-06-17T21:52:42.068Z,98501.53
2018-06-17T21:55:10.896Z,98500.40
2018-06-17T21:57:39.473Z,98500.05
2018-06-17T22:00:09.709Z,98496.18
2018-06-17T22:02:45.181Z,98497.55
2018-06-17T22:05:14.307Z,98505.53
2018-06-17T22:07:48.329Z,98502.34
2018-06-17T22:10:22.235Z,98505.18
2018-06-17T22:12:56.247Z,98512.63
2018-06-17T22:15:30.271Z,98520.14
2018-06-17T22:17:59.577Z,98519.80
2018-06-17T22:20:28.136Z,98524.02
2018-06-17T22:22:57.151Z,98527.80
2018-06-17T22:25:25.847Z,98529.48
2018-06-17T22:27:54.598Z,98531.03
2018-06-17T22:30:23.371Z,98533.42
2018-06-17T22:32:52.136Z,98534.22
2018-06-17T22:35:21.480Z,98534.89
2018-06-17T22:37:50.401Z,98538.77
2018-06-17T22:40:19.051Z,98533.95
2018-06-17T22:42:47.881Z,98537.70
2018-06-17T22:45:17.157Z,98532.80
2018-06-17T22:47:51.350Z,98540.20
2018-06-17T22:50:20.370Z,98531.86
2018-06-17T22:53:00.323Z,98541.78
2018-06-17T22:55:29.247Z,98543.45
2018-06-17T22:58:03.747Z,98548.44
2018-06-17T23:00:37.725Z,98558.41
2018-06-17T23:03:12.123Z,98553.57
2018-06-17T23:05:45.927Z,98558.67
2018-06-17T23:08:19.681Z,98557.19
2018-06-17T23:10:48.327Z,98559.70
2018-06-17T23:13:17.005Z,98563.65
2018-06-17T23:15:45.827Z,98564.09
2018-06-17T23:18:15.071Z,98558.09
2018-06-17T23:20:43.920Z,98563.62
2018-06-17T23:23:12.567Z,98565.17
2018-06-17T23:25:41.511Z,98558.48
2018-06-17T23:28:10.147Z,98568.69
2018-06-17T23:30:38.914Z,98573.69
2018-06-17T23:33:08.116Z,98579.41
2018-06-17T23:35:36.737Z,98573.48
2018-06-17T23:38:05.828Z,98576.20
2018-06-17T23:40:35.225Z,98579.20
2018-06-17T23:43:04.080Z,98579.97
2018-06-17T23:45:32.691Z,98583.35
2018-06-17T23:48:06.456Z,98581.52
2018-06-17T23:50:40.392Z,98581.77
2018-06-17T23:53:14.423Z,98586.80
2018-06-17T23:55:48.293Z,98577.75
2018-06-17T23:58:17.191Z,98577.53
